地図

経路データ

SID SEASON NUMBER BASIN SUBBASIN NAME ISO_TIME NATURE LAT LON WMO_WIND WMO_PRES WMO_AGENCY TRACK_TYPE DIST2LAND LANDFALL IFLAG USA_AGENCY USA_ATCF_ID USA_LAT USA_LON USA_RECORD USA_STATUS USA_WIND USA_PRES USA_SSHS USA_R34_NE USA_R34_SE USA_R34_SW USA_R34_NW USA_R50_NE USA_R50_SE USA_R50_SW USA_R50_NW USA_R64_NE USA_R64_SE USA_R64_SW USA_R64_NW USA_POCI USA_ROCI USA_RMW USA_EYE TOKYO_LAT TOKYO_LON TOKYO_GRADE TOKYO_WIND TOKYO_PRES TOKYO_R50_DIR TOKYO_R50_LONG TOKYO_R50_SHORT TOKYO_R30_DIR TOKYO_R30_LONG TOKYO_R30_SHORT TOKYO_LAND CMA_LAT CMA_LON CMA_CAT CMA_WIND CMA_PRES HKO_LAT HKO_LON HKO_CAT HKO_WIND HKO_PRES NEWDELHI_LAT NEWDELHI_LON NEWDELHI_GRADE NEWDELHI_WIND NEWDELHI_PRES NEWDELHI_CI NEWDELHI_DP NEWDELHI_POCI REUNION_LAT REUNION_LON REUNION_TYPE REUNION_WIND REUNION_PRES REUNION_TNUM REUNION_CI REUNION_RMW REUNION_R34_NE REUNION_R34_SE REUNION_R34_SW REUNION_R34_NW REUNION_R50_NE REUNION_R50_SE REUNION_R50_SW REUNION_R50_NW REUNION_R64_NE REUNION_R64_SE REUNION_R64_SW REUNION_R64_NW BOM_LAT BOM_LON BOM_TYPE BOM_WIND BOM_PRES BOM_TNUM BOM_CI BOM_RMW BOM_R34_NE BOM_R34_SE BOM_R34_SW BOM_R34_NW BOM_R50_NE BOM_R50_SE BOM_R50_SW BOM_R50_NW BOM_R64_NE BOM_R64_SE BOM_R64_SW BOM_R64_NW BOM_ROCI BOM_POCI BOM_EYE BOM_POS_METHOD BOM_PRES_METHOD NADI_LAT NADI_LON NADI_CAT NADI_WIND NADI_PRES WELLINGTON_LAT WELLINGTON_LON WELLINGTON_WIND WELLINGTON_PRES DS824_LAT DS824_LON DS824_STAGE DS824_WIND DS824_PRES TD9636_LAT TD9636_LON TD9636_STAGE TD9636_WIND TD9636_PRES TD9635_LAT TD9635_LON TD9635_WIND TD9635_PRES TD9635_ROCI NEUMANN_LAT NEUMANN_LON NEUMANN_CLASS NEUMANN_WIND NEUMANN_PRES MLC_LAT MLC_LON MLC_CLASS MLC_WIND MLC_PRES USA_GUST BOM_GUST BOM_GUST_PER REUNION_GUST REUNION_GUST_PER USA_SEAHGT USA_SEARAD_NE USA_SEARAD_SE USA_SEARAD_SW USA_SEARAD_NW STORM_SPEED STORM_DIR
1964252N11117 1964 79 WP MM NOT_NAMED 1964-09-07 12:00:00 NR 11.2000 116.700 main 254 244 __________O___ -1 11.2000 116.700 1 1 0
1964252N11117 1964 79 WP MM NOT_NAMED 1964-09-07 15:00:00 NR 11.1418 116.688 main 244 244 __________P___ -1 11.1418 116.688 1 2 212
1964252N11117 1964 79 WP MM NOT_NAMED 1964-09-07 18:00:00 NR 11.0469 116.600 main 240 237 __________P___ -1 11.0469 116.600 1 4 230
1964252N11117 1964 79 WP MM NOT_NAMED 1964-09-07 21:00:00 NR 10.8787 116.362 main 244 243 __________P___ -1 10.8787 116.362 1 8 237
1964252N11117 1964 79 WP MM NOT_NAMED 1964-09-08 00:00:00 NR 10.6000 115.900 main 258 258 __________O___ -1 10.6000 115.900 1 14 240
1964252N11117 1964 79 WP MM NOT_NAMED 1964-09-08 03:00:00 NR 10.1898 115.161 main 291 291 __________P___ -1 10.1898 115.161 1 19 242
1964252N11117 1964 79 WP MM NOT_NAMED 1964-09-08 06:00:00 NR 9.69424 114.178 main 362 362 __________P___ -1 9.69424 114.178 1 24 244
1964252N11117 1964 79 WP MM NOT_NAMED 1964-09-08 09:00:00 NR 9.17655 113.007 main 472 430 __________P___ -1 9.17655 113.007 1 26 248
1964252N11117 1964 79 WP MM NOT_NAMED 1964-09-08 12:00:00 NR 8.70000 111.700 main 423 364 __________O___ -1 8.70000 111.700 1 30 251
1964252N11117 1964 79 WP MM NOT_NAMED 1964-09-08 15:00:00 NR 8.23166 110.180 main 367 306 __________P___ -1 8.23166 110.180 1 32 254
1964252N11117 1964 79 WP MM NOT_NAMED 1964-09-08 18:00:00 NR 7.82785 108.569 main 306 226 __________P___ -1 7.82785 108.569 1 32 258
1964252N11117 1964 79 WP MM NOT_NAMED 1964-09-08 21:00:00 NR 7.55953 107.048 main 222 159 __________P___ -1 7.55953 107.048 1 28 263
1964252N11117 1964 79 WP MM NOT_NAMED 1964-09-09 00:00:00 NR 7.50000 105.800 main 155 114 __________O___ -1 7.50000 105.800 1 20 275
1964252N11117 1964 79 WP MM NOT_NAMED 1964-09-09 03:00:00 NR 7.73520 105.070 main 114 70 __________P___ -1 7.73520 105.070 1 14 300
1964252N11117 1964 79 WP MM NOT_NAMED 1964-09-09 06:00:00 NR 8.17853 104.617 main 65 49 __________P___ -1 8.17853 104.617 1 13 323
1964252N11117 1964 79 WP MM NOT_NAMED 1964-09-09 09:00:00 NR 8.73279 104.306 main 56 54 __________P___ -1 8.73279 104.306 1 13 331
1964252N11117 1964 79 WP MM NOT_NAMED 1964-09-09 12:00:00 NR 9.30000 104.000 main 98 78 __________O___ -1 9.30000 104.000 1 13 327
1964252N11117 1964 79 WP MM NOT_NAMED 1964-09-09 15:00:00 NR 9.80136 103.591 main 78 55 __________P___ -1 9.80136 103.591 1 13 316
1964252N11117 1964 79 WP MM NOT_NAMED 1964-09-09 18:00:00 NR 10.2378 103.083 main 62 55 __________P___ -1 10.2378 103.083 1 14 308
1964252N11117 1964 79 WP MM NOT_NAMED 1964-09-09 21:00:00 NR 10.6303 102.508 main 73 69 __________P___ -1 10.6303 102.508 1 14 303
1964252N11117 1964 79 WP MM NOT_NAMED 1964-09-10 00:00:00 NR 11.0000 101.900 main 131 __________O___ -1 11.0000 101.900 1 14 302

デジタル台風データ・検索

IBTrACS Databaseについて

本データベースは、米国NOAAが公開する1842年以降の世界の熱帯低気圧のベストトラックデータアーカイブInternational Best Track Archive for Climate Stewardship (IBTrACS)を、ウェブで閲覧しやすい形式に変換したものです。

最終更新日:2021-10-25